sensor_id;sensor_type;location;lat;lon;timestamp;pressure;altitude;pressure_sealevel;temperature;humidity
59337;BME280;45115;52.002;4.686;2023-02-02T00:01:10;102185.78;;;7.86;100.00
59337;BME280;45115;52.002;4.686;2023-02-02T00:03:37;102193.44;;;7.94;100.00
59337;BME280;45115;52.002;4.686;2023-02-02T00:06:04;102202.97;;;7.95;100.00
59337;BME280;45115;52.002;4.686;2023-02-02T00:09:00;102181.16;;;7.81;100.00
59337;BME280;45115;52.002;4.686;2023-02-02T00:11:27;102194.84;;;7.97;100.00
59337;BME280;45115;52.002;4.686;2023-02-02T00:13:54;102195.72;;;7.91;100.00
59337;BME280;45115;52.002;4.686;2023-02-02T00:16:37;102199.16;;;7.91;100.00
59337;BME280;45115;52.002;4.686;2023-02-02T00:19:06;102192.03;;;7.92;100.00
59337;BME280;45115;52.002;4.686;2023-02-02T00:21:33;102191.22;;;7.91;100.00
59337;BME280;45115;52.002;4.686;2023-02-02T00:24:01;102199.91;;;7.98;100.00
59337;BME280;45115;52.002;4.686;2023-02-02T00:26:28;102196.66;;;7.96;100.00
59337;BME280;45115;52.002;4.686;2023-02-02T00:28:55;102207.69;;;7.93;100.00
59337;BME280;45115;52.002;4.686;2023-02-02T00:31:22;102204.00;;;7.94;100.00
59337;BME280;45115;52.002;4.686;2023-02-02T00:33:49;102201.16;;;7.96;100.00
59337;BME280;45115;52.002;4.686;2023-02-02T00:36:17;102209.66;;;7.98;100.00
59337;BME280;45115;52.002;4.686;2023-02-02T00:38:45;102207.22;;;7.96;100.00
59337;BME280;45115;52.002;4.686;2023-02-02T00:41:14;102202.78;;;7.97;100.00
59337;BME280;45115;52.002;4.686;2023-02-02T00:43:41;102209.47;;;8.00;100.00
59337;BME280;45115;52.002;4.686;2023-02-02T00:46:11;102212.31;;;7.98;100.00
59337;BME280;45115;52.002;4.686;2023-02-02T00:48:40;102198.06;;;7.99;100.00
59337;BME280;45115;52.002;4.686;2023-02-02T00:51:06;102212.69;;;8.02;100.00
59337;BME280;45115;52.002;4.686;2023-02-02T00:53:34;102204.75;;;8.02;100.00
59337;BME280;45115;52.002;4.686;2023-02-02T00:56:01;102210.50;;;7.98;100.00
59337;BME280;45115;52.002;4.686;2023-02-02T00:58:29;102207.69;;;7.93;100.00
59337;BME280;45115;52.002;4.686;2023-02-02T01:00:56;102221.22;;;8.04;100.00
59337;BME280;45115;52.002;4.686;2023-02-02T01:03:23;102211.06;;;8.01;100.00
59337;BME280;45115;52.002;4.686;2023-02-02T01:05:50;102200.50;;;8.01;100.00
59337;BME280;45115;52.002;4.686;2023-02-02T01:08:17;102206.44;;;7.96;100.00
59337;BME280;45115;52.002;4.686;2023-02-02T01:10:47;102212.53;;;7.96;100.00
59337;BME280;45115;52.002;4.686;2023-02-02T01:13:14;102208.25;;;7.95;100.00
59337;BME280;45115;52.002;4.686;2023-02-02T01:15:43;102207.22;;;7.96;100.00
59337;BME280;45115;52.002;4.686;2023-02-02T01:18:09;102208.25;;;7.95;100.00
59337;BME280;45115;52.002;4.686;2023-02-02T01:20:36;102209.09;;;7.96;100.00
59337;BME280;45115;52.002;4.686;2023-02-02T01:23:03;102217.22;;;7.94;100.00
59337;BME280;45115;52.002;4.686;2023-02-02T01:25:29;102205.84;;;7.94;100.00
59337;BME280;45115;52.002;4.686;2023-02-02T01:27:59;102205.03;;;7.93;100.00
59337;BME280;45115;52.002;4.686;2023-02-02T01:30:27;102201.16;;;7.96;100.00
59337;BME280;45115;52.002;4.686;2023-02-02T01:32:55;102196.28;;;7.93;100.00
59337;BME280;45115;52.002;4.686;2023-02-02T01:35:22;102202.16;;;7.95;100.00
59337;BME280;45115;52.002;4.686;2023-02-02T01:37:49;102206.03;;;7.92;100.00
59337;BME280;45115;52.002;4.686;2023-02-02T01:40:16;102203.03;;;7.89;100.00
59337;BME280;45115;52.002;4.686;2023-02-02T01:42:43;102193.53;;;7.81;100.00
59337;BME280;45115;52.002;4.686;2023-02-02T01:45:20;102203.31;;;7.80;100.00
59337;BME280;45115;52.002;4.686;2023-02-02T01:47:49;102209.38;;;7.81;100.00
59337;BME280;45115;52.002;4.686;2023-02-02T01:50:31;102212.22;;;7.79;100.00
59337;BME280;45115;52.002;4.686;2023-02-02T01:53:01;102220.97;;;7.80;100.00
59337;BME280;45115;52.002;4.686;2023-02-02T01:55:31;102219.38;;;7.79;100.00
59337;BME280;45115;52.002;4.686;2023-02-02T01:58:01;102217.16;;;7.76;100.00
59337;BME280;45115;52.002;4.686;2023-02-02T02:00:29;102217.97;;;7.76;100.00
59337;BME280;45115;52.002;4.686;2023-02-02T02:02:58;102209.00;;;7.77;100.00
59337;BME280;45115;52.002;4.686;2023-02-02T02:05:30;102215.66;;;7.87;100.00
59337;BME280;45115;52.002;4.686;2023-02-02T02:08:05;102217.28;;;7.88;100.00
59337;BME280;45115;52.002;4.686;2023-02-02T02:10:35;102219.25;;;7.92;100.00
59337;BME280;45115;52.002;4.686;2023-02-02T02:13:02;102223.97;;;7.90;100.00
59337;BME280;45115;52.002;4.686;2023-02-02T02:15:34;102223.53;;;7.93;100.00
59337;BME280;45115;52.002;4.686;2023-02-02T02:18:29;102225.16;;;7.94;100.00
59337;BME280;45115;52.002;4.686;2023-02-02T02:21:25;102225.94;;;7.95;100.00
59337;BME280;45115;52.002;4.686;2023-02-02T02:28:00;102220.91;;;7.93;100.00
59337;BME280;45115;52.002;4.686;2023-02-02T02:33:41;102222.13;;;7.91;100.00
59337;BME280;45115;52.002;4.686;2023-02-02T02:36:18;102209.13;;;7.89;100.00
59337;BME280;45115;52.002;4.686;2023-02-02T02:38:49;102203.22;;;7.87;100.00
59337;BME280;45115;52.002;4.686;2023-02-02T02:41:20;102212.56;;;7.90;100.00
59337;BME280;45115;52.002;4.686;2023-02-02T02:43:52;102212.31;;;7.98;100.00
59337;BME280;45115;52.002;4.686;2023-02-02T02:46:22;102211.31;;;7.92;100.00
59337;BME280;45115;52.002;4.686;2023-02-02T02:48:51;102218.63;;;7.97;100.00
59337;BME280;45115;52.002;4.686;2023-02-02T02:51:42;102213.56;;;7.95;100.00
59337;BME280;45115;52.002;4.686;2023-02-02T02:54:15;102210.50;;;7.98;100.00
59337;BME280;45115;52.002;4.686;2023-02-02T02:56:54;102207.03;;;7.98;100.00
59337;BME280;45115;52.002;4.686;2023-02-02T02:59:27;102208.06;;;7.97;100.00
59337;BME280;45115;52.002;4.686;2023-02-02T03:02:07;102200.34;;;7.95;100.00
59337;BME280;45115;52.002;4.686;2023-02-02T03:04:50;102208.69;;;7.92;100.00
59337;BME280;45115;52.002;4.686;2023-02-02T03:07:24;102210.91;;;7.95;100.00
59337;BME280;45115;52.002;4.686;2023-02-02T03:09:53;102207.59;;;8.00;100.00
59337;BME280;45115;52.002;4.686;2023-02-02T03:12:22;102201.16;;;7.96;100.00
59337;BME280;45115;52.002;4.686;2023-02-02T03:14:49;102205.63;;;7.95;100.00
59337;BME280;45115;52.002;4.686;2023-02-02T03:17:15;102202.56;;;7.98;100.00
59337;BME280;45115;52.002;4.686;2023-02-02T03:19:43;102216.03;;;7.90;100.00
59337;BME280;45115;52.002;4.686;2023-02-02T03:22:10;102225.56;;;7.91;100.00
59337;BME280;45115;52.002;4.686;2023-02-02T03:24:36;102217.44;;;7.93;100.00
59337;BME280;45115;52.002;4.686;2023-02-02T03:27:03;102231.06;;;7.90;100.00
59337;BME280;45115;52.002;4.686;2023-02-02T03:29:30;102224.78;;;7.91;100.00
59337;BME280;45115;52.002;4.686;2023-02-02T03:31:56;102227.63;;;7.89;100.00
59337;BME280;45115;52.002;4.686;2023-02-02T03:34:23;102227.41;;;7.91;100.00
59337;BME280;45115;52.002;4.686;2023-02-02T03:36:51;102230.06;;;7.91;100.00
59337;BME280;45115;52.002;4.686;2023-02-02T03:39:18;102224.16;;;7.89;100.00
59337;BME280;45115;52.002;4.686;2023-02-02T03:41:44;102233.09;;;7.94;100.00
59337;BME280;45115;52.002;4.686;2023-02-02T03:44:11;102232.72;;;7.91;100.00
59337;BME280;45115;52.002;4.686;2023-02-02T03:46:38;102240.41;;;7.92;100.00
59337;BME280;45115;52.002;4.686;2023-02-02T03:49:04;102237.75;;;7.92;100.00
59337;BME280;45115;52.002;4.686;2023-02-02T03:51:31;102231.06;;;7.90;100.00
59337;BME280;45115;52.002;4.686;2023-02-02T03:53:59;102229.25;;;7.90;100.00
59337;BME280;45115;52.002;4.686;2023-02-02T03:56:26;102244.28;;;7.90;100.00
59337;BME280;45115;52.002;4.686;2023-02-02T03:58:52;102250.38;;;7.90;100.00
59337;BME280;45115;52.002;4.686;2023-02-02T04:01:25;102253.84;;;7.91;100.00
59337;BME280;45115;52.002;4.686;2023-02-02T04:03:53;102247.09;;;7.95;100.00
59337;BME280;45115;52.002;4.686;2023-02-02T04:06:20;102252.78;;;7.98;100.00
59337;BME280;45115;52.002;4.686;2023-02-02T04:08:46;102245.25;;;7.95;100.00
59337;BME280;45115;52.002;4.686;2023-02-02T04:11:14;102239.97;;;7.95;100.00
59337;BME280;45115;52.002;4.686;2023-02-02T04:13:41;102229.63;;;7.94;100.00
59337;BME280;45115;52.002;4.686;2023-02-02T04:16:09;102232.06;;;7.95;100.00
59337;BME280;45115;52.002;4.686;2023-02-02T04:18:36;102241.38;;;7.98;100.00
59337;BME280;45115;52.002;4.686;2023-02-02T04:21:04;102233.88;;;7.95;100.00
59337;BME280;45115;52.002;4.686;2023-02-02T04:23:31;102233.66;;;7.96;100.00
59337;BME280;45115;52.002;4.686;2023-02-02T04:25:58;102243.81;;;8.00;100.00
59337;BME280;45115;52.002;4.686;2023-02-02T04:28:27;102230.00;;;7.97;100.00
59337;BME280;45115;52.002;4.686;2023-02-02T04:30:54;102234.03;;;8.00;100.00
59337;BME280;45115;52.002;4.686;2023-02-02T04:33:23;102234.84;;;8.01;100.00
59337;BME280;45115;52.002;4.686;2023-02-02T04:35:50;102226.59;;;7.90;100.00
59337;BME280;45115;52.002;4.686;2023-02-02T04:38:17;102247.03;;;8.02;100.00
59337;BME280;45115;52.002;4.686;2023-02-02T04:40:45;102241.13;;;8.06;100.00
59337;BME280;45115;52.002;4.686;2023-02-02T04:43:12;102251.09;;;8.04;100.00
59337;BME280;45115;52.002;4.686;2023-02-02T04:45:40;102245.59;;;8.06;100.00
59337;BME280;45115;52.002;4.686;2023-02-02T04:48:07;102232.88;;;7.96;100.00
59337;BME280;45115;52.002;4.686;2023-02-02T04:50:34;102225.53;;;7.98;100.00
59337;BME280;45115;52.002;4.686;2023-02-02T04:53:00;102240.97;;;8.01;100.00
59337;BME280;45115;52.002;4.686;2023-02-02T04:55:28;102237.34;;;7.95;100.00
59337;BME280;45115;52.002;4.686;2023-02-02T04:57:54;102246.84;;;8.03;100.00
59337;BME280;45115;52.002;4.686;2023-02-02T05:00:21;102243.19;;;7.97;100.00
59337;BME280;45115;52.002;4.686;2023-02-02T05:02:49;102244.34;;;8.08;100.00
59337;BME280;45115;52.002;4.686;2023-02-02T05:05:17;102253.53;;;8.06;100.00
59337;BME280;45115;52.002;4.686;2023-02-02T05:07:44;102250.72;;;8.01;100.00
59337;BME280;45115;52.002;4.686;2023-02-02T05:10:11;102231.88;;;7.90;100.00
59337;BME280;45115;52.002;4.686;2023-02-02T05:12:38;102256.00;;;8.01;100.00
59337;BME280;45115;52.002;4.686;2023-02-02T05:15:05;102246.66;;;7.98;100.00
59337;BME280;45115;52.002;4.686;2023-02-02T05:17:32;102242.28;;;7.85;100.00
59337;BME280;45115;52.002;4.686;2023-02-02T05:20:00;102255.09;;;7.88;100.00
59337;BME280;45115;52.002;4.686;2023-02-02T05:22:27;102257.91;;;7.93;100.00
59337;BME280;45115;52.002;4.686;2023-02-02T05:24:54;102248.16;;;7.87;100.00
59337;BME280;45115;52.002;4.686;2023-02-02T05:27:20;102256.88;;;7.94;100.00
59337;BME280;45115;52.002;4.686;2023-02-02T05:29:47;102259.91;;;7.91;100.00
59337;BME280;45115;52.002;4.686;2023-02-02T05:32:14;102259.13;;;7.91;100.00
59337;BME280;45115;52.002;4.686;2023-02-02T05:34:41;102254.47;;;7.86;100.00
59337;BME280;45115;52.002;4.686;2023-02-02T05:37:09;102260.38;;;7.88;100.00
59337;BME280;45115;52.002;4.686;2023-02-02T05:39:35;102264.59;;;7.96;100.00
59337;BME280;45115;52.002;4.686;2023-02-02T05:42:02;102247.53;;;7.92;100.00
59337;BME280;45115;52.002;4.686;2023-02-02T05:44:29;102270.88;;;7.95;100.00
59337;BME280;45115;52.002;4.686;2023-02-02T05:46:56;102260.38;;;7.88;100.00
59337;BME280;45115;52.002;4.686;2023-02-02T05:49:22;102260.53;;;7.93;100.00
59337;BME280;45115;52.002;4.686;2023-02-02T05:51:51;102258.91;;;7.92;100.00
59337;BME280;45115;52.002;4.686;2023-02-02T05:54:20;102253.59;;;7.92;100.00
59337;BME280;45115;52.002;4.686;2023-02-02T05:56:48;102258.72;;;7.87;100.00
59337;BME280;45115;52.002;4.686;2023-02-02T05:59:15;102266.66;;;7.87;100.00
59337;BME280;45115;52.002;4.686;2023-02-02T06:01:42;102250.28;;;7.71;100.00
59337;BME280;45115;52.002;4.686;2023-02-02T06:04:09;102272.22;;;7.79;100.00
59337;BME280;45115;52.002;4.686;2023-02-02T06:06:35;102271.84;;;7.75;100.00
59337;BME280;45115;52.002;4.686;2023-02-02T06:09:03;102274.50;;;7.68;100.00
59337;BME280;45115;52.002;4.686;2023-02-02T06:11:31;102281.00;;;7.73;100.00
59337;BME280;45115;52.002;4.686;2023-02-02T06:13:58;102279.75;;;7.75;100.00
59337;BME280;45115;52.002;4.686;2023-02-02T06:16:25;102270.25;;;7.67;100.00
59337;BME280;45115;52.002;4.686;2023-02-02T06:18:52;102280.13;;;7.79;100.00
59337;BME280;45115;52.002;4.686;2023-02-02T06:21:19;102282.94;;;7.84;100.00
59337;BME280;45115;52.002;4.686;2023-02-02T06:23:47;102281.56;;;7.75;100.00
59337;BME280;45115;52.002;4.686;2023-02-02T06:26:15;102291.91;;;7.83;100.00
59337;BME280;45115;52.002;4.686;2023-02-02T06:28:48;102288.03;;;7.86;100.00
59337;BME280;45115;52.002;4.686;2023-02-02T06:31:15;102298.38;;;7.87;100.00
59337;BME280;45115;52.002;4.686;2023-02-02T06:33:43;102288.03;;;7.86;100.00
59337;BME280;45115;52.002;4.686;2023-02-02T06:36:11;102305.06;;;7.90;100.00
59337;BME280;45115;52.002;4.686;2023-02-02T06:38:38;102310.56;;;7.88;100.00
59337;BME280;45115;52.002;4.686;2023-02-02T06:41:05;102328.47;;;7.86;100.00
59337;BME280;45115;52.002;4.686;2023-02-02T06:43:32;102326.66;;;7.80;100.00
59337;BME280;45115;52.002;4.686;2023-02-02T06:46:00;102330.34;;;7.79;100.00
59337;BME280;45115;52.002;4.686;2023-02-02T06:48:27;102328.56;;;7.66;100.00
59337;BME280;45115;52.002;4.686;2023-02-02T06:50:56;102322.91;;;7.62;100.00
59337;BME280;45115;52.002;4.686;2023-02-02T06:53:23;102328.22;;;7.55;100.00
59337;BME280;45115;52.002;4.686;2023-02-02T06:55:54;102318.69;;;7.48;100.00
59337;BME280;45115;52.002;4.686;2023-02-02T06:58:21;102333.94;;;7.46;100.00
59337;BME280;45115;52.002;4.686;2023-02-02T07:00:47;102330.69;;;7.43;100.00
59337;BME280;45115;52.002;4.686;2023-02-02T07:03:16;102322.56;;;7.45;100.00
59337;BME280;45115;52.002;4.686;2023-02-02T07:05:43;102323.97;;;7.48;100.00
59337;BME280;45115;52.002;4.686;2023-02-02T07:08:10;102332.28;;;7.51;100.00
59337;BME280;45115;52.002;4.686;2023-02-02T07:10:37;102329.44;;;7.53;100.00
59337;BME280;45115;52.002;4.686;2023-02-02T07:13:04;102331.44;;;7.57;100.00
59337;BME280;45115;52.002;4.686;2023-02-02T07:15:31;102334.91;;;7.58;100.00
59337;BME280;45115;52.002;4.686;2023-02-02T07:17:58;102328.84;;;7.51;100.00
59337;BME280;45115;52.002;4.686;2023-02-02T07:20:26;102341.00;;;7.58;100.00
59337;BME280;45115;52.002;4.686;2023-02-02T07:22:53;102343.41;;;7.60;100.00
59337;BME280;45115;52.002;4.686;2023-02-02T07:25:20;102331.81;;;7.61;100.00
59337;BME280;45115;52.002;4.686;2023-02-02T07:27:51;102346.69;;;7.62;100.00
59337;BME280;45115;52.002;4.686;2023-02-02T07:30:18;102345.03;;;7.61;100.00
59337;BME280;45115;52.002;4.686;2023-02-02T07:32:46;102342.38;;;7.61;100.00
59337;BME280;45115;52.002;4.686;2023-02-02T07:35:13;102355.38;;;7.63;100.00
59337;BME280;45115;52.002;4.686;2023-02-02T07:37:41;102352.81;;;7.56;100.00
59337;BME280;45115;52.002;4.686;2023-02-02T07:40:10;102344.66;;;7.57;100.00
59337;BME280;45115;52.002;4.686;2023-02-02T07:42:37;102363.13;;;7.57;100.00
59337;BME280;45115;52.002;4.686;2023-02-02T07:45:04;102362.34;;;7.57;100.00
59337;BME280;45115;52.002;4.686;2023-02-02T07:47:32;102373.50;;;7.59;100.00
59337;BME280;45115;52.002;4.686;2023-02-02T07:49:58;102373.94;;;7.56;100.00
59337;BME280;45115;52.002;4.686;2023-02-02T07:52:27;102386.50;;;7.61;100.00
59337;BME280;45115;52.002;4.686;2023-02-02T07:54:55;102369.81;;;7.60;100.00
59337;BME280;45115;52.002;4.686;2023-02-02T07:57:25;102357.72;;;7.46;100.00
59337;BME280;45115;52.002;4.686;2023-02-02T07:59:52;102383.28;;;7.52;100.00
59337;BME280;45115;52.002;4.686;2023-02-02T08:02:19;102382.25;;;7.53;100.00
59337;BME280;45115;52.002;4.686;2023-02-02T08:04:46;102390.78;;;7.55;100.00
59337;BME280;45115;52.002;4.686;2023-02-02T08:07:13;102383.03;;;7.60;100.00
59337;BME280;45115;52.002;4.686;2023-02-02T08:09:44;102384.25;;;7.64;100.00
59337;BME280;45115;52.002;4.686;2023-02-02T08:12:13;102372.47;;;7.60;100.00
59337;BME280;45115;52.002;4.686;2023-02-02T08:14:40;102379.56;;;7.66;100.00
59337;BME280;45115;52.002;4.686;2023-02-02T08:17:07;102385.06;;;7.65;100.00
59337;BME280;45115;52.002;4.686;2023-02-02T08:19:34;102386.06;;;7.64;100.00
59337;BME280;45115;52.002;4.686;2023-02-02T08:22:01;102383.41;;;7.64;100.00
59337;BME280;45115;52.002;4.686;2023-02-02T08:24:27;102389.72;;;7.69;100.00
59337;BME280;45115;52.002;4.686;2023-02-02T08:26:54;102389.72;;;7.69;100.00
59337;BME280;45115;52.002;4.686;2023-02-02T08:29:22;102398.03;;;7.73;100.00
59337;BME280;45115;52.002;4.686;2023-02-02T08:31:49;102402.25;;;7.81;100.00
59337;BME280;45115;52.002;4.686;2023-02-02T08:34:16;102399.81;;;7.86;100.00
59337;BME280;45115;52.002;4.686;2023-02-02T08:36:42;102397.13;;;7.93;100.00
59337;BME280;45115;52.002;4.686;2023-02-02T08:39:11;102405.88;;;7.93;100.00
59337;BME280;45115;52.002;4.686;2023-02-02T08:41:38;102398.34;;;7.97;100.00
59337;BME280;45115;52.002;4.686;2023-02-02T08:44:05;102412.53;;;8.03;100.00
59337;BME280;45115;52.002;4.686;2023-02-02T08:46:34;102405.63;;;8.02;100.00
59337;BME280;45115;52.002;4.686;2023-02-02T08:49:01;102421.47;;;8.08;100.00
59337;BME280;45115;52.002;4.686;2023-02-02T08:51:27;102425.34;;;8.06;100.00
59337;BME280;45115;52.002;4.686;2023-02-02T08:53:54;102428.38;;;8.09;100.00
59337;BME280;45115;52.002;4.686;2023-02-02T08:56:21;102431.63;;;8.11;100.00
59337;BME280;45115;52.002;4.686;2023-02-02T08:58:49;102430.56;;;8.19;100.00
59337;BME280;45115;52.002;4.686;2023-02-02T09:01:18;102416.72;;;8.17;100.00
59337;BME280;45115;52.002;4.686;2023-02-02T09:03:47;102421.81;;;8.19;100.00
59337;BME280;45115;52.002;4.686;2023-02-02T09:06:15;102432.00;;;8.15;100.00
59337;BME280;45115;52.002;4.686;2023-02-02T09:08:42;102428.81;;;8.06;100.00
59337;BME280;45115;52.002;4.686;2023-02-02T09:11:11;102444.25;;;8.03;100.00
59337;BME280;45115;52.002;4.686;2023-02-02T09:13:39;102441.59;;;8.03;100.00
59337;BME280;45115;52.002;4.686;2023-02-02T09:16:08;102444.69;;;8.00;100.00
59337;BME280;45115;52.002;4.686;2023-02-02T09:18:35;102449.97;;;8.00;100.00
59337;BME280;45115;52.002;4.686;2023-02-02T09:21:06;102449.34;;;7.97;100.00
59337;BME280;45115;52.002;4.686;2023-02-02T09:23:35;102459.53;;;7.94;100.00
59337;BME280;45115;52.002;4.686;2023-02-02T09:26:09;102459.34;;;7.89;100.00
59337;BME280;45115;52.002;4.686;2023-02-02T09:28:36;102463.41;;;7.84;100.00
59337;BME280;45115;52.002;4.686;2023-02-02T09:31:03;102467.47;;;7.87;100.00
59337;BME280;45115;52.002;4.686;2023-02-02T09:33:30;102462.63;;;7.91;100.00
59337;BME280;45115;52.002;4.686;2023-02-02T09:36:04;102467.06;;;7.97;100.00
59337;BME280;45115;52.002;4.686;2023-02-02T09:38:32;102470.47;;;8.04;100.00
59337;BME280;45115;52.002;4.686;2023-02-02T09:40:59;102472.69;;;8.14;100.00
59337;BME280;45115;52.002;4.686;2023-02-02T09:43:38;102477.50;;;8.24;100.00
59337;BME280;45115;52.002;4.686;2023-02-02T09:46:19;102475.22;;;8.34;100.00
59337;BME280;45115;52.002;4.686;2023-02-02T09:48:52;102474.56;;;8.46;100.00
59337;BME280;45115;52.002;4.686;2023-02-02T09:51:27;102449.41;;;8.69;100.00
59337;BME280;45115;52.002;4.686;2023-02-02T09:54:00;102453.16;;;8.86;100.00
59337;BME280;45115;52.002;4.686;2023-02-02T09:56:33;102454.28;;;8.97;100.00
59337;BME280;45115;52.002;4.686;2023-02-02T09:59:05;102447.47;;;9.08;100.00
59337;BME280;45115;52.002;4.686;2023-02-02T10:01:35;102446.66;;;9.08;100.00
59337;BME280;45115;52.002;4.686;2023-02-02T10:04:06;102448.44;;;9.14;100.00
59337;BME280;45115;52.002;4.686;2023-02-02T10:06:42;102464.47;;;9.19;100.00
59337;BME280;45115;52.002;4.686;2023-02-02T10:09:19;102461.31;;;9.10;100.00
59337;BME280;45115;52.002;4.686;2023-02-02T10:11:53;102462.78;;;9.06;100.00
59337;BME280;45115;52.002;4.686;2023-02-02T10:14:24;102469.19;;;9.17;100.00
59337;BME280;45115;52.002;4.686;2023-02-02T10:16:54;102481.91;;;9.08;100.00
59337;BME280;45115;52.002;4.686;2023-02-02T10:19:23;102479.84;;;9.10;100.00
59337;BME280;45115;52.002;4.686;2023-02-02T10:22:00;102475.88;;;9.20;100.00
59337;BME280;45115;52.002;4.686;2023-02-02T10:24:30;102493.59;;;9.19;100.00
59337;BME280;45115;52.002;4.686;2023-02-02T10:26:59;102492.66;;;9.13;100.00
59337;BME280;45115;52.002;4.686;2023-02-02T10:29:33;102492.88;;;9.12;100.00
59337;BME280;45115;52.002;4.686;2023-02-02T10:32:11;102493.69;;;9.12;100.00
59337;BME280;45115;52.002;4.686;2023-02-02T10:34:43;102493.31;;;9.09;100.00
59337;BME280;45115;52.002;4.686;2023-02-02T10:37:23;102493.72;;;9.06;100.00
59337;BME280;45115;52.002;4.686;2023-02-02T10:40:04;102503.19;;;9.20;100.00
59337;BME280;45115;52.002;4.686;2023-02-02T10:42:43;102504.09;;;9.33;100.00
59337;BME280;45115;52.002;4.686;2023-02-02T10:45:36;102510.59;;;9.37;100.00
59337;BME280;45115;52.002;4.686;2023-02-02T10:48:12;102506.09;;;9.37;100.00
59337;BME280;45115;52.002;4.686;2023-02-02T10:50:42;102506.91;;;9.38;100.00
59337;BME280;45115;52.002;4.686;2023-02-02T10:53:13;102505.34;;;9.30;100.00
59337;BME280;45115;52.002;4.686;2023-02-02T10:55:44;102500.91;;;9.24;100.00
59337;BME280;45115;52.002;4.686;2023-02-02T10:58:21;102495.94;;;9.34;100.00
59337;BME280;45115;52.002;4.686;2023-02-02T11:00:52;102496.72;;;9.35;100.00
59337;BME280;45115;52.002;4.686;2023-02-02T11:03:21;102485.44;;;9.46;100.00
59337;BME280;45115;52.002;4.686;2023-02-02T11:05:49;102490.13;;;9.44;100.00
59337;BME280;45115;52.002;4.686;2023-02-02T11:08:37;102498.06;;;9.44;100.00
59337;BME280;45115;52.002;4.686;2023-02-02T11:11:11;102495.88;;;9.41;100.00
59337;BME280;45115;52.002;4.686;2023-02-02T11:13:41;102501.03;;;9.54;100.00
59337;BME280;45115;52.002;4.686;2023-02-02T11:16:21;102507.16;;;9.55;100.00
59337;BME280;45115;52.002;4.686;2023-02-02T11:18:48;102509.28;;;9.46;100.00
59337;BME280;45115;52.002;4.686;2023-02-02T11:21:20;102511.31;;;9.25;100.00
59337;BME280;45115;52.002;4.686;2023-02-02T11:23:52;102508.50;;;9.20;100.00
59337;BME280;45115;52.002;4.686;2023-02-02T11:26:21;102514.94;;;9.24;100.00
59337;BME280;45115;52.002;4.686;2023-02-02T11:28:49;102505.06;;;9.13;100.00
59337;BME280;45115;52.002;4.686;2023-02-02T11:31:35;102499.34;;;9.16;100.00
59337;BME280;45115;52.002;4.686;2023-02-02T11:34:16;102511.84;;;9.09;100.00
59337;BME280;45115;52.002;4.686;2023-02-02T11:37:00;102510.38;;;9.13;100.00
59337;BME280;45115;52.002;4.686;2023-02-02T11:39:29;102508.75;;;9.12;100.00
59337;BME280;45115;52.002;4.686;2023-02-02T11:42:01;102516.66;;;9.19;100.00
59337;BME280;45115;52.002;4.686;2023-02-02T11:44:29;102504.09;;;9.07;100.00
59337;BME280;45115;52.002;4.686;2023-02-02T11:46:59;102507.78;;;9.06;100.00
59337;BME280;45115;52.002;4.686;2023-02-02T11:49:27;102501.88;;;9.04;100.00
59337;BME280;45115;52.002;4.686;2023-02-02T11:51:59;102497.63;;;9.03;100.00
59337;BME280;45115;52.002;4.686;2023-02-02T11:54:29;102504.56;;;8.97;100.00
59337;BME280;45115;52.002;4.686;2023-02-02T11:56:59;102500.25;;;9.03;100.00
59337;BME280;45115;52.002;4.686;2023-02-02T11:59:29;102506.16;;;9.05;100.00
59337;BME280;45115;52.002;4.686;2023-02-02T12:02:23;102500.97;;;8.92;100.00
59337;BME280;45115;52.002;4.686;2023-02-02T12:04:52;102500.34;;;8.89;100.00
59337;BME280;45115;52.002;4.686;2023-02-02T12:07:25;102498.69;;;8.95;100.00
59337;BME280;45115;52.002;4.686;2023-02-02T12:09:57;102494.75;;;9.04;100.00
59337;BME280;45115;52.002;4.686;2023-02-02T12:12:36;102499.69;;;9.01;100.00
59337;BME280;45115;52.002;4.686;2023-02-02T12:15:15;102489.13;;;8.94;100.00
59337;BME280;45115;52.002;4.686;2023-02-02T12:17:51;102490.09;;;9.00;100.00
59337;BME280;45115;52.002;4.686;2023-02-02T12:20:28;102495.66;;;8.92;100.00
59337;BME280;45115;52.002;4.686;2023-02-02T12:23:07;102499.19;;;8.85;100.00
59337;BME280;45115;52.002;4.686;2023-02-02T12:25:53;102500.56;;;8.56;100.00
59337;BME280;45115;52.002;4.686;2023-02-02T12:28:35;102512.84;;;8.36;100.00
59337;BME280;45115;52.002;4.686;2023-02-02T12:31:11;102512.72;;;8.24;100.00
59337;BME280;45115;52.002;4.686;2023-02-02T12:33:45;102511.53;;;8.07;100.00
59337;BME280;45115;52.002;4.686;2023-02-02T12:36:32;102513.00;;;7.96;100.00
59337;BME280;45115;52.002;4.686;2023-02-02T12:39:12;102508.13;;;7.93;100.00
59337;BME280;45115;52.002;4.686;2023-02-02T12:42:09;102518.31;;;7.82;100.00
59337;BME280;45115;52.002;4.686;2023-02-02T12:44:48;102513.03;;;7.82;100.00
59337;BME280;45115;52.002;4.686;2023-02-02T12:47:24;102511.03;;;7.71;100.00
59337;BME280;45115;52.002;4.686;2023-02-02T12:50:17;102520.38;;;7.80;100.00
59337;BME280;45115;52.002;4.686;2023-02-02T12:52:59;102524.81;;;7.87;100.00
59337;BME280;45115;52.002;4.686;2023-02-02T12:55:39;102517.09;;;7.92;100.00
59337;BME280;45115;52.002;4.686;2023-02-02T12:58:16;102508.97;;;7.87;100.00
59337;BME280;45115;52.002;4.686;2023-02-02T13:01:21;102515.03;;;7.87;100.00
59337;BME280;45115;52.002;4.686;2023-02-02T13:04:01;102514.25;;;7.87;100.00
59337;BME280;45115;52.002;4.686;2023-02-02T13:07:01;102504.47;;;7.87;100.00
59337;BME280;45115;52.002;4.686;2023-02-02T13:09:38;102508.56;;;7.83;100.00
59337;BME280;45115;52.002;4.686;2023-02-02T13:12:09;102498.41;;;7.80;100.00
59337;BME280;45115;52.002;4.686;2023-02-02T13:14:40;102502.66;;;7.88;100.00